createdAt,value
2017-09-19T00:00:07.367Z,5.73
2017-09-19T00:02:34.845Z,5.70
2017-09-19T00:05:02.386Z,5.20
2017-09-19T00:07:29.892Z,6.07
2017-09-19T00:09:57.399Z,5.87
2017-09-19T00:12:24.910Z,7.80
2017-09-19T00:14:52.384Z,7.30
2017-09-19T00:17:20.636Z,6.40
2017-09-19T00:19:48.141Z,4.40
2017-09-19T00:22:15.628Z,7.80
2017-09-19T00:24:43.127Z,5.17
2017-09-19T00:27:10.653Z,4.90
2017-09-19T00:29:38.159Z,5.63
2017-09-19T00:32:05.633Z,7.83
2017-09-19T00:34:33.890Z,7.80
2017-09-19T00:37:01.366Z,5.57
2017-09-19T00:39:28.943Z,4.60
2017-09-19T00:41:56.422Z,6.13
2017-09-19T00:44:23.922Z,4.17
2017-09-19T00:46:51.530Z,5.90
2017-09-19T00:49:19.008Z,6.33
2017-09-19T00:51:46.524Z,5.10
2017-09-19T00:54:14.823Z,6.00
2017-09-19T00:56:42.286Z,5.83
2017-09-19T01:14:12.861Z,6.50
2017-09-19T01:16:40.336Z,6.53
2017-09-19T01:19:07.801Z,6.83
2017-09-19T01:21:35.458Z,4.80
2017-09-19T01:24:03.705Z,3.90
2017-09-19T01:26:31.952Z,5.37
2017-09-19T01:28:59.442Z,9.30
2017-09-19T01:31:26.933Z,5.67
2017-09-19T01:33:55.186Z,5.13
2017-09-19T01:36:22.704Z,6.53
2017-09-19T01:38:50.183Z,15.60
2017-09-19T01:41:17.650Z,6.23
2017-09-19T01:43:45.241Z,4.93
2017-09-19T01:46:12.722Z,5.90
2017-09-19T01:48:40.320Z,7.33
2017-09-19T01:51:07.853Z,4.93
2017-09-19T01:53:36.092Z,4.83
2017-09-19T01:56:03.588Z,4.30
2017-09-19T01:58:31.048Z,8.57
2017-09-19T02:00:59.291Z,5.03
2017-09-19T02:03:26.817Z,7.00
2017-09-19T02:05:54.295Z,4.93
2017-09-19T02:08:21.830Z,6.37
2017-09-19T02:10:50.057Z,5.20
2017-09-19T02:13:18.309Z,5.20
2017-09-19T02:15:46.558Z,7.07
2017-09-19T02:18:14.040Z,5.90
2017-09-19T02:20:41.500Z,4.17
2017-09-19T02:23:10.686Z,11.87
2017-09-19T02:25:38.929Z,5.40
2017-09-19T02:28:06.400Z,6.23
2017-09-19T02:30:34.651Z,6.07
2017-09-19T02:33:02.134Z,6.30
2017-09-19T02:35:29.657Z,6.50
2017-09-19T02:37:57.897Z,5.13
2017-09-19T02:40:25.366Z,5.50
2017-09-19T02:42:53.607Z,4.90
2017-09-19T02:45:21.088Z,7.10
2017-09-19T02:47:48.611Z,6.07
2017-09-19T02:50:16.077Z,5.67
2017-09-19T02:52:43.661Z,5.80
2017-09-19T02:55:11.137Z,7.43
2017-09-19T02:57:39.392Z,6.23
2017-09-19T03:00:07.639Z,8.37
2017-09-19T03:02:35.116Z,6.63
2017-09-19T03:05:02.597Z,6.47
2017-09-19T03:07:30.081Z,4.67
2017-09-19T03:09:58.336Z,6.73
2017-09-19T03:12:26.642Z,7.00
2017-09-19T03:14:54.127Z,12.00
2017-09-19T03:17:22.382Z,6.60
2017-09-19T03:19:49.887Z,6.60
2017-09-19T03:22:17.356Z,6.40
2017-09-19T03:24:44.848Z,6.90
2017-09-19T03:27:12.316Z,7.83
2017-09-19T03:29:39.789Z,6.60
2017-09-19T03:32:07.329Z,8.37
2017-09-19T03:34:34.800Z,7.00
2017-09-19T03:37:02.302Z,7.00
2017-09-19T03:39:29.826Z,6.13
2017-09-19T03:41:57.326Z,7.40
2017-09-19T03:44:24.815Z,10.63
2017-09-19T03:46:52.301Z,9.30
2017-09-19T03:49:19.790Z,12.30
2017-09-19T03:51:47.279Z,7.07
2017-09-19T03:54:14.752Z,10.47
2017-09-19T03:56:42.979Z,9.20
2017-09-19T03:59:10.484Z,8.47
2017-09-19T04:01:37.975Z,10.67
2017-09-19T04:04:05.462Z,9.70
2017-09-19T04:06:33.087Z,11.10
2017-09-19T04:09:00.575Z,8.47
2017-09-19T04:11:28.121Z,11.43
2017-09-19T04:13:55.619Z,14.53
2017-09-19T04:16:23.931Z,8.27
2017-09-19T04:18:51.413Z,9.83
2017-09-19T04:21:19.686Z,9.47
2017-09-19T04:23:47.246Z,8.07
2017-09-19T04:26:14.879Z,12.30
2017-09-19T04:28:42.420Z,10.70
2017-09-19T04:31:09.911Z,9.20
2017-09-19T04:33:38.186Z,12.47
2017-09-19T04:36:05.713Z,13.10
2017-09-19T04:38:33.228Z,11.70
2017-09-19T04:41:01.449Z,9.87
2017-09-19T04:43:29.708Z,11.53
2017-09-19T04:45:57.196Z,14.40
2017-09-19T04:48:24.687Z,13.63
2017-09-19T04:50:52.191Z,16.83
2017-09-19T04:53:19.679Z,12.80
2017-09-19T04:55:47.177Z,14.30
2017-09-19T04:58:14.655Z,15.90
2017-09-19T05:00:42.136Z,14.23
2017-09-19T05:03:09.821Z,14.83
2017-09-19T05:05:37.322Z,18.30
2017-09-19T05:08:04.872Z,12.20
2017-09-19T05:10:32.398Z,17.53
2017-09-19T05:13:00.685Z,14.93
2017-09-19T05:15:28.182Z,17.10
2017-09-19T05:17:56.454Z,19.17
2017-09-19T05:20:24.008Z,15.13
2017-09-19T05:22:51.545Z,19.10
2017-09-19T05:25:19.062Z,14.07
2017-09-19T05:27:47.320Z,19.60
2017-09-19T05:30:14.837Z,17.20
2017-09-19T05:32:43.106Z,23.10
2017-09-19T05:35:10.643Z,18.73
2017-09-19T05:37:39.004Z,21.20
2017-09-19T05:40:06.526Z,20.67
2017-09-19T05:42:34.793Z,20.93
2017-09-19T05:45:02.296Z,20.10
2017-09-19T05:47:29.793Z,22.40
2017-09-19T05:49:57.284Z,26.90
2017-09-19T05:52:25.547Z,24.53
2017-09-19T05:54:53.025Z,20.33
2017-09-19T05:57:20.525Z,19.50
2017-09-19T05:59:48.229Z,19.30
2017-09-19T06:02:15.755Z,20.60
2017-09-19T06:04:43.249Z,22.80
2017-09-19T06:07:10.769Z,19.30
2017-09-19T06:09:38.248Z,20.80
2017-09-19T06:12:05.800Z,21.40
2017-09-19T06:14:33.316Z,16.93
2017-09-19T06:17:00.812Z,16.60
2017-09-19T06:19:28.342Z,16.50
2017-09-19T06:21:55.849Z,18.40
2017-09-19T06:24:23.529Z,21.33
2017-09-19T06:26:51.034Z,19.43
2017-09-19T06:29:18.518Z,18.43
2017-09-19T06:31:46.049Z,18.17
2017-09-19T06:34:13.541Z,14.70
2017-09-19T06:36:41.804Z,16.20
2017-09-19T06:39:09.362Z,17.20
2017-09-19T06:41:36.879Z,19.00
2017-09-19T06:44:04.438Z,16.03
2017-09-19T06:46:31.935Z,18.70
2017-09-19T06:48:59.438Z,13.40
2017-09-19T06:51:26.933Z,17.63
2017-09-19T06:53:54.424Z,20.87
2017-09-19T06:56:21.941Z,21.67
2017-09-19T06:58:49.464Z,15.60
2017-09-19T07:01:16.999Z,15.40
2017-09-19T07:03:45.271Z,15.23
2017-09-19T07:06:13.568Z,16.17
2017-09-19T07:08:41.930Z,14.37
2017-09-19T07:11:09.615Z,18.70
2017-09-19T07:13:37.155Z,16.40
2017-09-19T07:16:04.644Z,18.03
2017-09-19T07:18:32.133Z,12.07
2017-09-19T07:20:59.613Z,11.60
2017-09-19T07:23:27.284Z,13.47
2017-09-19T07:25:54.786Z,18.40
2017-09-19T07:28:22.330Z,15.97
2017-09-19T07:30:49.862Z,12.83
2017-09-19T07:33:17.351Z,12.20
2017-09-19T07:35:45.611Z,15.37
2017-09-19T07:38:13.101Z,13.87
2017-09-19T07:40:40.589Z,13.23
2017-09-19T07:43:08.081Z,10.20
2017-09-19T07:45:35.609Z,12.47
2017-09-19T07:48:03.183Z,14.03
2017-09-19T07:50:31.439Z,14.03
2017-09-19T07:52:58.958Z,13.57
2017-09-19T07:55:26.522Z,18.53
2017-09-19T07:57:54.135Z,12.80
2017-09-19T08:00:22.451Z,10.10
2017-09-19T08:02:49.989Z,11.13
2017-09-19T08:05:17.497Z,9.83
2017-09-19T08:07:45.737Z,12.37
2017-09-19T08:10:13.261Z,11.93
2017-09-19T08:12:40.765Z,17.13
2017-09-19T08:15:08.329Z,12.10
2017-09-19T08:17:35.816Z,13.33
2017-09-19T08:20:03.415Z,10.80
2017-09-19T08:22:31.686Z,8.93
2017-09-19T08:24:59.176Z,14.33
2017-09-19T08:27:27.253Z,10.30
2017-09-19T08:29:55.498Z,11.33
2017-09-19T08:32:23.005Z,10.57
2017-09-19T08:34:50.515Z,10.87
2017-09-19T08:37:18.802Z,12.13
2017-09-19T08:39:46.448Z,13.53
2017-09-19T08:42:14.125Z,13.63
2017-09-19T08:44:41.600Z,12.60
2017-09-19T08:47:09.199Z,9.03
2017-09-19T08:49:36.690Z,16.70
2017-09-19T08:52:04.313Z,15.00
2017-09-19T08:54:31.817Z,18.73
2017-09-19T08:57:00.078Z,12.13
2017-09-19T08:59:27.641Z,8.83
2017-09-19T09:01:55.110Z,11.80
2017-09-19T09:04:22.618Z,13.83
2017-09-19T09:06:50.105Z,9.93
2017-09-19T09:09:17.574Z,13.40
2017-09-19T09:11:45.105Z,11.93
2017-09-19T09:14:12.584Z,15.00
2017-09-19T09:16:40.083Z,14.73
2017-09-19T09:19:07.580Z,11.83
2017-09-19T09:21:35.181Z,12.17
2017-09-19T09:24:02.669Z,10.03
2017-09-19T09:26:30.160Z,12.33
2017-09-19T09:28:57.649Z,12.57
2017-09-19T09:31:25.995Z,12.33
2017-09-19T09:33:53.516Z,11.87
2017-09-19T09:36:20.979Z,14.13
2017-09-19T09:38:49.297Z,15.33
2017-09-19T09:41:16.786Z,10.30
2017-09-19T09:43:44.331Z,11.13
2017-09-19T09:46:11.812Z,9.60
2017-09-19T09:48:39.304Z,9.00
2017-09-19T09:51:06.798Z,8.43
2017-09-19T09:53:35.052Z,12.70
2017-09-19T09:56:02.556Z,11.33
2017-09-19T09:58:30.070Z,10.77
2017-09-19T10:00:58.323Z,13.43
2017-09-19T10:03:25.827Z,14.50
2017-09-19T10:05:53.376Z,9.57
2017-09-19T10:08:20.971Z,9.27
2017-09-19T10:10:48.521Z,9.07
2017-09-19T10:13:15.997Z,10.03
2017-09-19T10:15:44.265Z,12.23
2017-09-19T10:18:11.851Z,13.20
2017-09-19T10:20:39.358Z,12.50
2017-09-19T10:23:06.850Z,11.10
2017-09-19T10:25:34.359Z,13.37
2017-09-19T10:28:01.924Z,11.23
2017-09-19T10:30:30.135Z,9.60
2017-09-19T10:32:57.639Z,7.93
2017-09-19T10:35:25.125Z,10.53
2017-09-19T10:37:52.612Z,9.27
2017-09-19T10:40:20.091Z,5.70
2017-09-19T10:42:47.620Z,8.27
2017-09-19T10:45:15.895Z,10.87
2017-09-19T10:47:43.395Z,9.70
2017-09-19T10:50:11.661Z,8.60
2017-09-19T10:52:39.149Z,9.90
2017-09-19T10:55:06.650Z,8.53
2017-09-19T10:57:34.173Z,7.00
2017-09-19T11:00:01.669Z,9.50
2017-09-19T11:02:29.258Z,10.90
2017-09-19T11:04:56.839Z,6.90
2017-09-19T11:07:24.345Z,8.63
2017-09-19T11:09:51.869Z,8.77
2017-09-19T11:12:20.180Z,6.97
2017-09-19T11:14:47.714Z,10.27
2017-09-19T11:17:15.210Z,8.50
2017-09-19T11:19:42.739Z,7.23
2017-09-19T11:22:10.266Z,8.20
2017-09-19T11:24:37.751Z,10.37
2017-09-19T11:27:05.257Z,9.87
2017-09-19T11:29:32.767Z,8.00
2017-09-19T11:32:01.017Z,10.13
2017-09-19T11:34:28.556Z,8.90
2017-09-19T11:36:56.058Z,11.03
2017-09-19T11:39:23.636Z,10.60
2017-09-19T11:41:51.173Z,7.03
2017-09-19T11:44:18.674Z,8.23
2017-09-19T11:46:46.954Z,16.57
2017-09-19T11:49:14.480Z,8.60
2017-09-19T11:51:41.973Z,8.00
2017-09-19T11:54:09.476Z,8.10
2017-09-19T11:56:36.948Z,7.17
2017-09-19T11:59:04.454Z,7.37
2017-09-19T12:01:31.977Z,7.40
2017-09-19T12:04:00.575Z,7.20
2017-09-19T12:06:28.176Z,14.43
2017-09-19T12:08:56.405Z,8.10
2017-09-19T12:11:23.946Z,8.53
2017-09-19T12:13:51.429Z,7.60
2017-09-19T12:16:18.923Z,8.60
2017-09-19T12:18:47.156Z,6.97
2017-09-19T12:21:14.762Z,7.37
2017-09-19T12:23:42.247Z,8.33
2017-09-19T12:26:09.872Z,7.60
2017-09-19T12:28:37.385Z,7.77
2017-09-19T12:31:04.876Z,7.27
2017-09-19T12:33:33.167Z,6.00
2017-09-19T12:36:00.757Z,9.60
2017-09-19T12:38:29.018Z,6.23
2017-09-19T12:40:56.529Z,8.53
2017-09-19T12:43:24.029Z,6.67
2017-09-19T12:45:51.533Z,10.43
2017-09-19T12:48:19.001Z,6.90
2017-09-19T12:50:47.578Z,7.07
2017-09-19T12:53:15.082Z,10.87
2017-09-19T12:55:43.338Z,6.20
2017-09-19T12:58:10.847Z,6.80
2017-09-19T13:00:38.344Z,11.30
2017-09-19T13:03:05.904Z,6.30
2017-09-19T13:05:33.380Z,6.10
2017-09-19T13:08:00.886Z,6.03
2017-09-19T13:10:28.384Z,6.40
2017-09-19T13:12:55.862Z,8.13
2017-09-19T13:15:23.462Z,7.20
2017-09-19T13:17:50.938Z,5.83
2017-09-19T13:20:18.420Z,5.67
2017-09-19T13:22:45.913Z,9.83
2017-09-19T13:25:14.266Z,8.27
2017-09-19T13:27:41.740Z,10.70
2017-09-19T13:30:09.982Z,8.43
2017-09-19T13:35:42.824Z,9.47
2017-09-19T13:38:10.325Z,8.47
2017-09-19T13:40:37.809Z,8.40
2017-09-19T13:43:05.321Z,9.57
2017-09-19T13:45:32.789Z,8.07
2017-09-19T13:48:00.350Z,7.40
2017-09-19T13:50:28.680Z,7.27
2017-09-19T13:53:03.050Z,8.80
2017-09-19T13:55:30.609Z,9.30
2017-09-19T13:57:58.108Z,10.80
2017-09-19T14:00:25.591Z,6.67
2017-09-19T14:02:53.096Z,7.63
2017-09-19T14:05:20.628Z,7.57
2017-09-19T14:07:48.898Z,7.40
2017-09-19T14:10:17.192Z,8.07
2017-09-19T14:12:44.666Z,6.13
2017-09-19T14:15:12.918Z,6.00
2017-09-19T14:17:40.402Z,8.60
2017-09-19T14:20:07.925Z,5.83
2017-09-19T14:22:35.520Z,5.53
2017-09-19T14:25:03.067Z,6.97
2017-09-19T14:27:31.384Z,5.23
2017-09-19T14:29:58.892Z,10.83
2017-09-19T14:32:26.382Z,11.87
2017-09-19T14:34:53.881Z,5.87
2017-09-19T14:37:21.399Z,4.90
2017-09-19T14:39:49.016Z,5.40
2017-09-19T14:42:16.548Z,6.53
2017-09-19T14:44:44.069Z,5.00
2017-09-19T14:47:12.422Z,7.60
2017-09-19T14:49:39.911Z,6.13
2017-09-19T14:52:07.578Z,4.10
2017-09-19T14:54:35.060Z,6.73
2017-09-19T14:57:02.548Z,9.60
2017-09-19T14:59:30.133Z,5.87
2017-09-19T15:01:58.377Z,5.77
2017-09-19T15:04:25.908Z,4.90
2017-09-19T15:06:54.160Z,6.50
2017-09-19T15:09:21.624Z,5.87
2017-09-19T15:11:49.129Z,4.97
2017-09-19T15:14:16.619Z,8.13
2017-09-19T15:16:44.083Z,5.10
2017-09-19T15:19:11.618Z,9.03
2017-09-19T15:21:39.876Z,4.43
2017-09-19T15:24:07.465Z,6.30
2017-09-19T15:26:34.955Z,5.63
2017-09-19T15:29:02.466Z,7.57
2017-09-19T15:31:30.004Z,5.87
2017-09-19T15:33:57.486Z,3.30
2017-09-19T15:36:24.997Z,3.70
2017-09-19T15:38:52.490Z,5.73
2017-09-19T15:41:20.010Z,8.00
2017-09-19T15:43:48.350Z,6.53
2017-09-19T15:46:15.859Z,5.20
2017-09-19T15:48:43.631Z,7.40
2017-09-19T15:51:12.082Z,4.63
2017-09-19T15:53:39.576Z,3.47
2017-09-19T15:56:08.076Z,6.30
2017-09-19T15:58:35.595Z,8.13
2017-09-19T16:01:03.854Z,5.63
2017-09-19T16:03:31.399Z,6.10
2017-09-19T16:05:58.876Z,17.60
2017-09-19T16:08:26.344Z,6.80
2017-09-19T16:10:54.608Z,7.67
2017-09-19T16:13:22.135Z,9.20
2017-09-19T16:15:49.796Z,5.97
2017-09-19T16:18:17.342Z,5.30
2017-09-19T16:20:45.645Z,7.97
2017-09-19T16:23:13.160Z,7.10
2017-09-19T16:25:40.679Z,9.67
2017-09-19T16:28:08.947Z,6.50
2017-09-19T16:30:36.436Z,7.20
2017-09-19T16:33:03.930Z,5.50
2017-09-19T16:35:31.694Z,7.93
2017-09-19T16:37:59.188Z,9.70
2017-09-19T16:40:26.740Z,5.97
2017-09-19T16:42:54.247Z,8.47
2017-09-19T16:45:21.725Z,8.33
2017-09-19T16:47:49.290Z,7.53
2017-09-19T16:50:16.799Z,7.93
2017-09-19T16:52:44.317Z,11.37
2017-09-19T16:55:11.800Z,7.00
2017-09-19T16:57:40.066Z,7.20
2017-09-19T17:00:07.788Z,6.07
2017-09-19T17:02:35.261Z,8.10
2017-09-19T17:05:02.827Z,6.80
2017-09-19T17:07:30.365Z,7.97
2017-09-19T17:09:58.630Z,4.30
2017-09-19T17:12:26.115Z,5.27
2017-09-19T17:14:53.604Z,4.13
2017-09-19T17:17:21.166Z,9.10
2017-09-19T17:19:48.752Z,7.83
2017-09-19T17:22:16.249Z,8.30
2017-09-19T17:24:43.715Z,8.80
2017-09-19T17:27:11.250Z,8.30
2017-09-19T17:29:39.501Z,7.33
2017-09-19T17:32:07.099Z,4.37
2017-09-19T17:34:34.641Z,4.40
2017-09-19T17:37:02.187Z,6.73
2017-09-19T17:39:30.571Z,7.30
2017-09-19T17:41:58.061Z,7.13
2017-09-19T17:44:25.549Z,6.50
2017-09-19T17:46:53.875Z,7.33
2017-09-19T17:49:21.395Z,6.03
2017-09-19T17:51:48.977Z,6.13
2017-09-19T17:54:16.542Z,5.60
2017-09-19T17:56:44.025Z,6.30
2017-09-19T17:59:11.662Z,4.70
2017-09-19T18:01:39.153Z,7.33
2017-09-19T18:04:06.642Z,6.77
2017-09-19T18:06:34.899Z,11.30
2017-09-19T18:09:02.397Z,10.53
2017-09-19T18:11:29.978Z,8.50
2017-09-19T18:13:57.628Z,8.93
2017-09-19T18:16:25.107Z,4.60
2017-09-19T18:18:52.611Z,5.77
2017-09-19T18:21:20.116Z,7.60
2017-09-19T18:23:47.885Z,6.83
2017-09-19T18:26:15.403Z,8.23
2017-09-19T18:28:42.961Z,9.67
2017-09-19T18:31:10.453Z,7.43
2017-09-19T18:33:37.963Z,9.10
2017-09-19T18:36:05.451Z,7.90
2017-09-19T18:38:32.952Z,9.17
2017-09-19T18:41:01.227Z,7.93
2017-09-19T18:43:28.857Z,13.10
2017-09-19T18:45:57.145Z,6.87
2017-09-19T18:48:25.398Z,8.57
2017-09-19T18:50:52.918Z,6.20
2017-09-19T18:53:20.394Z,6.97
2017-09-19T18:55:47.945Z,9.50
2017-09-19T18:58:16.184Z,9.77
2017-09-19T19:00:43.854Z,8.60
2017-09-19T19:03:11.407Z,6.30
2017-09-19T19:05:38.893Z,10.63
2017-09-19T19:08:06.410Z,8.40
2017-09-19T19:10:33.890Z,5.90
2017-09-19T19:13:01.543Z,5.83
2017-09-19T19:15:29.032Z,7.47
2017-09-19T19:17:56.522Z,10.33
2017-09-19T19:20:24.038Z,9.93
2017-09-19T19:22:51.529Z,6.37
2017-09-19T19:25:19.810Z,7.03
2017-09-19T19:27:47.299Z,9.83
2017-09-19T19:30:14.823Z,12.73
2017-09-19T19:32:42.308Z,15.60
2017-09-19T19:35:09.798Z,8.03
2017-09-19T19:37:37.356Z,6.20
2017-09-19T19:40:05.601Z,6.97
2017-09-19T19:42:33.151Z,7.10
2017-09-19T19:45:00.637Z,6.20
2017-09-19T19:47:29.241Z,7.10
2017-09-19T19:49:56.720Z,8.87
2017-09-19T19:52:24.273Z,8.43
2017-09-19T19:54:52.012Z,9.10
2017-09-19T19:57:19.524Z,9.37
2017-09-19T19:59:47.051Z,8.50
2017-09-19T20:02:15.306Z,7.93
2017-09-19T20:04:42.872Z,12.10
2017-09-19T20:07:10.442Z,5.73
2017-09-19T20:09:38.732Z,9.27
2017-09-19T20:12:06.985Z,7.20
2017-09-19T20:14:34.489Z,8.70
2017-09-19T20:17:01.956Z,7.43
2017-09-19T20:19:29.604Z,6.33
2017-09-19T20:21:57.088Z,9.57
2017-09-19T20:24:24.731Z,10.20
2017-09-19T20:26:52.235Z,7.33
2017-09-19T20:29:19.711Z,8.40
2017-09-19T20:31:47.235Z,7.40
2017-09-19T20:34:15.865Z,8.43
2017-09-19T20:36:44.153Z,8.67
2017-09-19T20:39:11.642Z,7.40
2017-09-19T20:41:39.159Z,10.77
2017-09-19T20:44:07.412Z,11.37
2017-09-19T20:46:34.893Z,8.67
2017-09-19T20:51:40.581Z,8.27
2017-09-19T20:54:08.110Z,11.50
2017-09-19T20:56:35.587Z,8.83
2017-09-19T20:59:03.078Z,8.10
2017-09-19T21:01:30.599Z,8.00
2017-09-19T21:04:04.545Z,9.00
2017-09-19T21:06:38.481Z,9.60
2017-09-19T21:14:30.395Z,9.77
2017-09-19T21:17:04.365Z,10.37
2017-09-19T21:19:31.472Z,7.13
2017-09-19T21:21:58.962Z,8.03
2017-09-19T21:24:26.559Z,8.40
2017-09-19T21:26:54.027Z,10.03
2017-09-19T21:29:21.520Z,8.03
2017-09-19T21:31:49.211Z,8.83
2017-09-19T21:34:16.707Z,10.13
2017-09-19T21:36:44.296Z,9.60
2017-09-19T21:39:11.956Z,8.60
2017-09-19T21:41:39.442Z,6.50
2017-09-19T21:44:06.936Z,9.03
2017-09-19T21:46:34.416Z,8.63
2017-09-19T21:49:01.927Z,9.63
2017-09-19T21:51:29.484Z,7.40
2017-09-19T21:53:57.008Z,6.87
2017-09-19T21:56:25.313Z,8.33
2017-09-19T21:58:53.584Z,8.80
2017-09-19T22:01:21.086Z,6.00
2017-09-19T22:03:48.567Z,8.90
2017-09-19T22:06:16.212Z,6.43
2017-09-19T22:08:43.818Z,8.20
2017-09-19T22:11:11.287Z,6.83
2017-09-19T22:13:39.549Z,7.47
2017-09-19T22:16:07.832Z,9.30
2017-09-19T22:18:35.344Z,6.10
2017-09-19T22:21:03.592Z,8.67
2017-09-19T22:23:31.171Z,6.70
2017-09-19T22:25:58.762Z,8.00
2017-09-19T22:28:26.244Z,12.43
2017-09-19T22:30:53.836Z,12.13
2017-09-19T22:33:21.308Z,8.00
2017-09-19T22:35:48.806Z,9.10
2017-09-19T22:38:17.317Z,8.57
2017-09-19T22:40:44.865Z,9.27
2017-09-19T22:43:13.158Z,10.37
2017-09-19T22:45:41.401Z,9.97
2017-09-19T22:48:08.913Z,11.50
2017-09-19T22:50:36.413Z,9.00
2017-09-19T22:53:03.901Z,8.73
2017-09-19T22:55:31.383Z,11.90
2017-09-19T22:57:59.622Z,9.87
2017-09-19T23:00:27.925Z,10.40
2017-09-19T23:02:55.391Z,7.93
2017-09-19T23:05:23.085Z,10.73
2017-09-19T23:07:50.569Z,11.50
2017-09-19T23:10:18.046Z,11.27
2017-09-19T23:12:45.553Z,11.23
2017-09-19T23:15:13.055Z,10.57
2017-09-19T23:17:40.649Z,10.90
2017-09-19T23:20:08.889Z,9.63
2017-09-19T23:22:37.131Z,12.50
2017-09-19T23:25:04.633Z,13.83
2017-09-19T23:27:32.880Z,10.00
2017-09-19T23:30:00.374Z,10.73
2017-09-19T23:32:27.933Z,11.47
2017-09-19T23:35:02.160Z,11.10
2017-09-19T23:37:29.651Z,12.40
2017-09-19T23:39:57.132Z,13.20
2017-09-19T23:42:25.136Z,15.27
2017-09-19T23:44:52.616Z,16.73
2017-09-19T23:47:20.095Z,18.70
2017-09-19T23:49:48.391Z,19.23
2017-09-19T23:52:16.660Z,20.80
2017-09-19T23:54:45.705Z,18.90
2017-09-19T23:57:13.951Z,19.30
2017-09-19T23:59:41.458Z,19.63
